.
WxDataArchive / Data Records for 2011-07-06
2011-07-05 July 2011 2011-07-07

Data Records for Wednesday, 06 July 2011

Time	Temp	Chill	HIndex	Humid	Dewpt	 Wind 	HiWind	WindDir	Rain 	Barom 
-----	----	-----	------	-----	-----	------	------	-------	-----	----- 
00:00	72.8	72.8	72.8	69	62.0	0	0	---	0.00	29.933 
00:05	72.8	72.8	72.8	70	62.4	0	0	---	0.00	29.933 
00:10	72.7	72.7	72.7	70	62.3	0	0	---	0.00	29.933 
00:15	72.7	72.7	72.7	70	62.3	0	0	---	0.00	29.933 
00:20	72.7	72.7	72.7	70	62.3	0	0	---	0.00	29.933 
00:25	72.7	72.7	72.7	71	62.7	0	0	---	0.00	29.933 
00:30	72.5	72.5	72.5	71	62.5	0	0	---	0.00	29.936 
00:35	72.5	72.5	72.5	71	62.5	0	0	---	0.00	29.936 
00:40	72.5	72.5	72.5	71	62.5	0	0	---	0.00	29.936 
00:45	72.5	72.5	72.5	71	62.5	0	0	---	0.00	29.938 
00:50	72.3	72.3	72.3	70	62.0	0	0	---	0.00	29.938 
00:55	72.3	72.3	72.3	70	62.0	0	0	---	0.00	29.938 
01:00	72.1	72.1	72.1	70	61.8	0	0	---	0.00	29.937 
01:05	72.1	72.1	72.1	70	61.8	0	0	---	0.00	29.937 
01:10	72.0	72.0	72.0	70	61.7	0	0	---	0.00	29.937 
01:15	71.8	71.8	71.8	70	61.5	0	0	---	0.00	29.931 
01:20	71.6	71.6	71.6	71	61.7	0	0	---	0.00	29.931 
01:25	71.5	71.5	71.5	72	62.0	0	0	---	0.00	29.931 
01:30	71.3	71.3	71.3	72	61.8	0	0	---	0.00	29.939 
01:35	71.1	71.1	71.1	72	61.6	0	0	---	0.00	29.939 
01:40	70.9	70.9	70.9	72	61.4	0	0	---	0.00	29.939 
01:45	70.9	70.9	70.9	73	61.8	0	0	---	0.00	29.939 
01:50	71.3	71.3	71.3	71	61.4	0	0	---	0.00	29.939 
01:55	71.6	71.6	71.6	70	61.3	0	0	---	0.00	29.939 
02:00	72.0	72.0	72.0	69	61.3	0	0	---	0.00	29.934 
02:05	72.1	72.1	72.1	68	60.9	0	0	---	0.00	29.934 
02:10	72.3	72.3	72.3	68	61.1	0	0	---	0.00	29.934 
02:15	72.5	72.5	72.5	67	60.9	0	0	---	0.00	29.934 
02:20	72.5	72.5	72.5	67	60.9	0	0	---	0.00	29.934 
02:25	72.5	72.5	72.5	67	60.9	0	0	---	0.00	29.934 
02:30	72.5	72.5	72.5	67	60.9	0	0	---	0.00	29.928 
02:35	72.3	72.3	72.3	67	60.7	0	0	---	0.00	29.928 
02:40	72.3	72.3	72.3	67	60.7	0	0	---	0.00	29.928 
02:45	72.1	72.1	72.1	67	60.5	0	0	---	0.00	29.925 
02:50	72.0	72.0	72.0	68	60.8	0	0	---	0.00	29.925 
02:55	71.8	71.8	71.8	68	60.7	0	0	---	0.00	29.925 
03:00	71.6	71.6	71.6	68	60.5	0	0	---	0.00	29.928 
03:05	71.5	71.5	71.5	69	60.8	0	0	---	0.00	29.928 
03:10	71.3	71.3	71.3	69	60.6	0	0	---	0.00	29.928 
03:15	71.1	71.1	71.1	69	60.4	0	0	---	0.00	29.922 
03:20	71.1	71.1	71.1	69	60.4	0	0	---	0.00	29.922 
03:25	70.9	70.9	70.9	69	60.2	0	0	---	0.00	29.922 
03:30	70.9	70.9	70.9	69	60.2	0	0	---	0.00	29.924 
03:35	70.9	70.9	70.9	69	60.2	0	0	---	0.00	29.924 
03:40	70.9	70.9	70.9	69	60.2	0	0	---	0.00	29.924 
03:45	70.9	70.9	70.9	69	60.2	0	0	---	0.00	29.925 
03:50	71.1	71.1	71.1	68	60.0	0	0	---	0.00	29.925 
03:55	71.1	71.1	71.1	68	60.0	0	0	---	0.00	29.925 
04:00	70.9	70.9	70.9	68	59.8	0	0	---	0.00	29.923 
04:05	70.9	70.9	70.9	69	60.2	0	0	---	0.00	29.923 
04:10	70.8	70.8	70.8	69	60.1	0	0	---	0.00	29.923 
04:15	70.6	70.6	70.6	69	59.9	0	0	---	0.00	29.922 
04:20	70.4	70.4	70.4	69	59.7	0	0	---	0.00	29.922 
04:25	70.3	70.3	70.3	69	59.6	0	0	---	0.00	29.922 
04:30	70.1	70.1	70.1	70	59.8	0	0	---	0.00	29.918 
04:35	69.9	69.9	69.9	71	60.1	0	0	---	0.00	29.918 
04:40	69.8	69.8	69.8	71	60.0	0	0	---	0.00	29.918 
04:45	69.6	69.6	69.6	71	59.8	0	0	---	0.00	29.919 
04:50	69.4	69.4	69.4	72	60.0	0	0	---	0.00	29.919 
04:55	69.4	69.4	69.4	72	60.0	0	0	---	0.00	29.919 
05:00	69.3	69.3	69.3	73	60.3	0	0	---	0.00	29.917 
05:05	69.1	69.1	69.1	73	60.1	0	0	---	0.00	29.917 
05:10	68.9	68.9	68.9	74	60.3	0	0	---	0.00	29.917 
05:15	68.9	68.9	68.9	74	60.3	0	0	---	0.00	29.917 
05:20	68.8	68.8	68.8	75	60.5	0	0	---	0.00	29.917 
05:25	68.6	68.6	68.6	76	60.7	0	0	---	0.00	29.917 
05:30	68.4	68.4	68.4	76	60.5	0	0	---	0.00	29.911 
05:35	68.4	68.4	68.4	76	60.5	0	0	---	0.00	29.911 
05:40	68.4	68.4	68.4	76	60.5	0	0	---	0.00	29.911 
05:45	68.6	68.6	68.6	77	61.1	0	0	---	0.00	29.912 
05:50	68.6	68.6	68.6	77	61.1	0	0	---	0.00	29.912 
05:55	68.6	68.6	68.6	77	61.1	0	0	---	0.00	29.912 
06:00	68.6	68.6	68.6	77	61.1	0	0	---	0.00	29.918 
06:05	68.6	68.6	68.6	78	61.5	0	0	---	0.00	29.918 
06:10	68.6	68.6	68.6	77	61.1	0	0	---	0.00	29.918 
06:15	68.6	68.6	68.6	78	61.5	0	0	---	0.00	29.925 
06:20	68.8	68.8	68.8	77	61.3	0	0	---	0.00	29.925 
06:25	68.9	68.9	68.9	77	61.4	0	0	---	0.00	29.925 
06:30	68.9	68.9	68.9	77	61.4	0	0	---	0.00	29.928 
06:35	69.3	69.3	69.3	76	61.4	0	0	---	0.00	29.928 
06:40	69.4	69.4	69.4	76	61.5	0	0	---	0.00	29.928 
06:45	69.6	69.6	69.6	76	61.7	0	0	---	0.00	29.931 
06:50	69.8	69.8	69.8	74	61.1	0	0	---	0.00	29.931 
06:55	70.1	70.1	70.1	74	61.4	0	0	---	0.00	29.931 
07:00	70.4	70.4	70.4	73	61.3	0	0	---	0.00	29.931 
07:05	70.4	70.4	70.4	73	61.3	0	0	---	0.00	29.931 
07:10	70.6	70.6	70.6	73	61.5	0	0	---	0.00	29.931 
07:15	70.8	70.8	70.8	73	61.7	0	1	22	0.00	29.935 
07:20	70.9	70.9	70.9	72	61.4	0	0	---	0.00	29.935 
07:25	71.1	71.1	71.1	73	62.0	0	0	---	0.00	29.935 
07:30	71.3	71.3	71.3	73	62.2	0	0	---	0.00	29.933 
07:35	71.5	71.5	71.5	72	62.0	0	1	22	0.00	29.933 
07:40	71.8	71.8	71.8	71	61.9	0	0	---	0.00	29.933 
07:45	72.0	72.0	72.0	71	62.1	0	1	292	0.00	29.938 
07:50	72.1	72.1	72.1	70	61.8	0	1	292	0.00	29.938 
07:55	72.3	72.3	72.3	69	61.5	0	1	292	0.00	29.938 
08:00	72.5	72.5	72.5	69	61.7	0	1	292	0.00	29.937 
08:05	72.7	72.7	72.7	69	61.9	0	0	---	0.00	29.937 
08:10	72.8	72.8	72.8	69	62.0	0	1	292	0.00	29.937 
08:15	73.2	73.2	73.2	68	62.0	0	1	292	0.00	29.942 
08:20	73.3	73.3	73.3	68	62.1	0	2	292	0.00	29.942 
08:25	73.7	73.7	73.7	68	62.5	0	1	292	0.00	29.942 
08:30	74.0	74.0	74.0	67	62.3	0	1	292	0.00	29.940 
08:35	74.2	74.2	74.2	67	62.5	0	1	292	0.00	29.940 
08:40	74.4	74.4	74.4	66	62.3	0	1	292	0.00	29.940 
08:45	74.6	74.6	74.6	66	62.5	0	2	292	0.00	29.941 
08:50	74.7	74.7	74.7	66	62.6	0	1	292	0.00	29.941 
08:55	74.9	74.9	74.9	65	62.3	0	2	292	0.00	29.941 
09:00	75.3	75.3	77.3	65	62.7	1	2	292	0.00	29.942 
09:05	75.8	75.8	77.7	66	63.6	0	1	292	0.00	29.942 
09:10	76.3	76.3	78.2	63	62.8	1	2	292	0.00	29.942 
09:15	76.5	76.5	78.3	63	62.9	0	2	292	0.00	29.944 
09:20	76.7	76.7	78.5	63	63.1	1	2	292	0.00	29.944 
09:25	77.0	77.0	78.8	63	63.4	1	2	292	0.00	29.944 
09:30	77.6	77.6	79.4	63	64.0	0	2	292	0.00	29.948 
09:35	77.9	77.9	79.6	62	63.8	0	1	292	0.00	29.948 
09:40	78.5	78.5	80.2	61	63.9	1	2	292	0.00	29.948 
09:45	79.0	79.0	80.8	62	64.8	0	2	292	0.00	29.947 
09:50	79.8	79.8	81.6	60	64.7	0	2	292	0.00	29.947 
09:55	80.3	80.3	81.9	58	64.2	0	2	338	0.00	29.947 
10:00	80.5	80.5	82.2	58	64.3	1	3	338	0.00	29.947 
10:05	80.5	80.5	82.1	57	63.8	0	2	338	0.00	29.947 
10:10	80.9	80.9	82.7	58	64.7	1	3	338	0.00	29.947 
10:15	81.6	81.6	83.2	56	64.4	1	4	270	0.00	29.949 
10:20	82.2	82.2	83.8	55	64.4	1	3	270	0.00	29.949 
10:25	82.6	82.6	84.1	54	64.2	1	4	270	0.00	29.949 
10:30	83.0	83.0	84.5	53	64.1	1	4	270	0.00	29.950 
10:35	83.0	83.0	84.5	53	64.1	1	3	270	0.00	29.950 
10:40	82.6	82.6	84.0	53	63.7	2	3	292	0.00	29.950 
10:45	82.6	82.6	84.3	55	64.8	1	3	292	0.00	29.951 
10:50	82.8	82.8	84.2	53	63.9	1	3	292	0.00	29.951 
10:55	83.4	83.4	85.0	53	64.4	1	3	292	0.00	29.951 
11:00	83.8	83.8	85.1	51	63.7	1	4	292	0.00	29.952 
11:05	84.1	84.1	85.7	52	64.5	1	3	292	0.00	29.952 
11:10	84.1	84.1	85.3	50	63.4	1	3	292	0.00	29.952 
11:15	84.3	84.3	85.5	50	63.6	2	4	292	0.00	29.953 
11:20	84.7	84.7	86.0	50	64.0	1	2	315	0.00	29.953 
11:25	84.7	84.7	86.0	50	64.0	2	4	315	0.00	29.953 
11:30	84.9	84.9	86.3	50	64.2	1	4	315	0.00	29.954 
11:35	85.3	85.3	86.6	49	63.9	1	5	270	0.00	29.954 
11:40	85.7	85.7	87.2	49	64.3	1	3	270	0.00	29.954 
11:45	86.1	86.1	87.5	48	64.1	1	4	270	0.00	29.952 
11:50	86.3	86.3	87.2	46	63.0	2	5	270	0.00	29.952 
11:55	86.5	86.5	87.5	46	63.2	2	4	270	0.00	29.952 
12:00	86.5	86.5	87.2	45	62.6	1	3	270	0.00	29.947 
12:05	86.7	86.7	87.8	46	63.4	1	2	270	0.00	29.947 
12:10	87.2	87.2	87.9	44	62.6	1	4	270	0.00	29.947 
12:15	87.4	87.4	88.2	44	62.8	1	3	270	0.00	29.944 
12:20	87.4	87.4	87.6	42	61.5	1	5	270	0.00	29.944 
12:25	87.8	87.8	88.2	42	61.8	2	5	270	0.00	29.944 
12:30	87.6	87.6	87.6	41	60.9	1	4	338	0.00	29.948 
12:35	87.2	87.2	87.4	42	61.3	1	4	292	0.00	29.948 
12:40	87.6	87.6	87.9	42	61.6	2	4	292	0.00	29.948 
12:45	87.6	87.6	87.9	42	61.6	1	5	315	0.00	29.944 
12:50	87.8	87.8	87.9	41	61.1	1	6	270	0.00	29.944 
12:55	87.8	87.8	87.9	41	61.1	1	3	270	0.00	29.944 
13:00	87.4	87.4	87.4	41	60.8	2	4	292	0.00	29.944 
13:05	87.0	87.0	87.4	43	61.8	1	3	292	0.00	29.944 
13:10	87.4	87.4	87.6	42	61.5	3	7	270	0.00	29.944 
13:15	88.0	88.0	88.7	43	62.7	1	4	270	0.00	29.943 
13:20	88.2	88.2	88.7	42	62.2	2	5	270	0.00	29.943 
13:25	88.6	88.6	88.7	40	61.1	3	5	270	0.00	29.943 
13:30	88.4	88.4	88.7	41	61.7	1	4	270	0.00	29.940 
13:35	88.0	88.0	88.7	43	62.7	1	2	270	0.00	29.940 
13:40	88.0	88.0	88.2	41	61.3	2	5	315	0.00	29.940 
13:45	87.6	87.6	87.6	41	60.9	2	5	270	0.00	29.944 
13:50	87.8	87.8	87.9	41	61.1	2	4	270	0.00	29.944 
13:55	88.4	88.4	88.4	40	61.0	1	6	270	0.00	29.944 
14:00	88.8	88.8	89.6	42	62.7	2	5	270	0.00	29.938 
14:05	89.3	89.3	89.7	40	61.8	2	4	270	0.00	29.938 
14:10	89.5	89.5	89.6	39	61.2	2	4	315	0.00	29.938 
14:15	88.8	88.8	89.0	40	61.3	2	4	315	0.00	29.939 
14:20	88.4	88.4	88.7	41	61.7	2	4	315	0.00	29.939 
14:25	88.4	88.4	88.4	40	61.0	1	4	270	0.00	29.939 
14:30	88.4	88.4	88.4	40	61.0	2	4	292	0.00	29.934 
14:35	87.4	87.4	87.4	41	60.8	2	9	292	0.00	29.934 
14:40	87.4	87.4	87.6	42	61.5	1	4	292	0.00	29.934 
14:45	88.2	88.2	88.7	42	62.2	1	3	292	0.00	29.927 
14:50	88.6	88.6	89.0	41	61.8	1	3	292	0.00	29.927 
14:55	88.6	88.6	88.7	40	61.1	1	4	315	0.00	29.927 
15:00	89.3	89.3	89.4	39	61.0	2	6	270	0.00	29.926 
15:05	89.3	89.3	89.4	39	61.0	2	5	292	0.00	29.926 
15:10	89.7	89.7	90.2	40	62.1	1	2	292	0.00	29.926 
15:15	89.9	89.9	90.2	39	61.6	1	4	292	0.00	29.921 
15:20	89.3	89.3	89.4	39	61.0	3	6	292	0.00	29.921 
15:25	89.3	89.3	89.7	40	61.8	1	6	292	0.00	29.921 
15:30	89.3	89.3	89.4	39	61.0	3	5	338	0.00	29.922 
15:35	89.3	89.3	89.4	39	61.0	1	4	338	0.00	29.922 
15:40	88.8	88.8	88.7	39	60.6	2	4	315	0.00	29.922 
15:45	89.0	89.0	89.6	41	62.2	2	4	315	0.00	29.921 
15:50	89.5	89.5	89.6	39	61.2	2	4	315	0.00	29.921 
15:55	89.7	89.7	89.9	39	61.4	2	5	292	0.00	29.921 
16:00	89.3	89.3	89.1	38	60.3	2	5	315	0.00	29.919 
16:05	88.8	88.8	89.3	41	62.0	1	3	315	0.00	29.919 
16:10	89.5	89.5	90.0	40	61.9	2	4	315	0.00	29.919 
16:15	89.3	89.3	89.7	40	61.8	2	4	315	0.00	29.916 
16:20	89.3	89.3	89.4	39	61.0	2	4	315	0.00	29.916 
16:25	89.0	89.0	89.3	40	61.5	2	4	315	0.00	29.916 
16:30	88.6	88.6	88.4	39	60.4	2	4	315	0.00	29.912 
16:35	88.8	88.8	89.0	40	61.3	2	4	315	0.00	29.912 
16:40	89.0	89.0	89.3	40	61.5	1	3	292	0.00	29.912 
16:45	88.4	88.4	88.7	41	61.7	0	2	292	0.00	29.909 
16:50	88.8	88.8	89.0	40	61.3	1	5	292	0.00	29.909 
16:55	89.5	89.5	89.6	39	61.2	3	6	292	0.00	29.909 
17:00	89.3	89.3	89.4	39	61.0	2	5	292	0.00	29.902 
17:05	89.7	89.7	89.9	39	61.4	2	4	270	0.00	29.902 
17:10	89.3	89.3	90.0	41	62.5	2	6	292	0.00	29.902 
17:15	89.5	89.5	89.6	39	61.2	2	5	292	0.00	29.898 
17:20	89.3	89.3	90.0	41	62.5	1	3	292	0.00	29.898 
17:25	89.5	89.5	90.6	42	63.3	1	4	292	0.00	29.898 
17:30	89.5	89.5	89.3	38	60.5	3	6	292	0.00	29.899 
17:35	89.0	89.0	88.7	38	60.1	2	6	315	0.00	29.899 
17:40	89.0	89.0	89.3	40	61.5	1	4	338	0.00	29.899 
17:45	89.0	89.0	89.3	40	61.5	1	4	315	0.00	29.898 
17:50	89.3	89.3	89.1	38	60.3	3	7	315	0.00	29.898 
17:55	89.0	89.0	88.7	38	60.1	2	6	292	0.00	29.898 
18:00	88.8	88.8	88.7	39	60.6	1	4	270	0.00	29.896 
18:05	88.2	88.2	87.4	37	58.6	2	5	292	0.00	29.896 
18:10	87.8	87.8	87.1	38	59.0	2	5	315	0.00	29.896 
18:15	87.6	87.6	87.1	39	59.5	1	3	270	0.00	29.896 
18:20	87.8	87.8	87.4	39	59.7	1	4	270	0.00	29.896 
18:25	87.6	87.6	86.9	38	58.8	1	4	270	0.00	29.896 
18:30	87.8	87.8	87.1	38	59.0	1	3	292	0.00	29.894 
18:35	88.2	88.2	87.4	37	58.6	2	4	292	0.00	29.894 
18:40	88.2	88.2	87.4	37	58.6	2	4	292	0.00	29.894 
18:45	87.8	87.8	87.1	38	59.0	1	4	292	0.00	29.894 
18:50	87.4	87.4	87.4	41	60.8	1	5	292	0.00	29.894 
18:55	86.5	86.5	87.0	44	62.0	1	5	270	0.00	29.894 
19:00	85.5	85.5	86.2	46	62.3	0	2	270	0.00	29.895 
19:05	85.5	85.5	86.2	46	62.3	2	6	270	0.00	29.895 
19:10	85.9	85.9	86.7	46	62.7	1	3	292	0.00	29.895 
19:15	86.1	86.1	87.0	46	62.9	1	4	292	0.00	29.895 
19:20	85.7	85.7	86.9	48	63.7	0	2	0	0.00	29.895 
19:25	85.7	85.7	86.4	46	62.5	1	4	292	0.00	29.895 
19:30	85.9	85.9	86.7	46	62.7	2	4	315	0.00	29.896 
19:35	85.7	85.7	86.7	47	63.1	1	4	315	0.00	29.896 
19:40	85.5	85.5	86.4	47	62.9	1	4	270	0.00	29.896 
19:45	85.3	85.3	86.4	48	63.4	1	3	270	0.00	29.905 
19:50	85.1	85.1	86.1	48	63.2	1	3	270	0.00	29.905 
19:55	84.9	84.9	85.8	48	63.0	1	3	270	0.00	29.905 
20:00	84.7	84.7	85.6	48	62.8	1	4	270	0.00	29.906 
20:05	84.5	84.5	85.8	50	63.8	0	1	270	0.00	29.906 
20:10	84.3	84.3	85.5	50	63.6	0	3	270	0.00	29.906 
20:15	84.0	84.0	85.1	50	63.3	0	2	270	0.00	29.907 
20:20	83.6	83.6	85.0	52	64.1	0	1	270	0.00	29.907 
20:25	83.6	83.6	85.0	52	64.1	0	2	270	0.00	29.907 
20:30	83.4	83.4	84.6	51	63.3	0	1	270	0.00	29.909 
20:35	83.2	83.2	84.7	53	64.3	0	2	270	0.00	29.909 
20:40	83.0	83.0	84.5	53	64.1	0	1	270	0.00	29.909 
20:45	82.6	82.6	84.1	54	64.2	0	1	270	0.00	29.908 
20:50	82.4	82.4	84.1	55	64.6	0	2	270	0.00	29.908 
20:55	82.0	82.0	83.6	55	64.2	0	1	68	0.00	29.908 
21:00	81.6	81.6	83.2	56	64.4	0	1	68	0.00	29.909 
21:05	81.4	81.4	83.0	56	64.2	0	0	---	0.00	29.909 
21:10	81.2	81.2	82.9	57	64.5	0	0	---	0.00	29.909 
21:15	80.9	80.9	82.5	57	64.2	0	0	---	0.00	29.906 
21:20	80.5	80.5	82.2	58	64.3	0	0	---	0.00	29.906 
21:25	80.3	80.3	81.9	58	64.2	0	1	68	0.00	29.906 
21:30	80.1	80.1	81.8	59	64.5	0	0	---	0.00	29.908 
21:35	79.8	79.8	81.5	59	64.2	0	1	68	0.00	29.908 
21:40	79.6	79.6	81.3	60	64.5	0	0	---	0.00	29.908 
21:45	79.4	79.4	81.1	60	64.3	0	0	---	0.00	29.915 
21:50	79.2	79.2	80.9	60	64.1	0	0	---	0.00	29.915 
21:55	79.0	79.0	80.8	61	64.4	0	0	---	0.00	29.915 
22:00	78.8	78.8	80.5	61	64.2	0	0	---	0.00	29.921 
22:05	78.6	78.6	80.4	62	64.5	0	1	68	0.00	29.921 
22:10	78.6	78.6	80.4	62	64.5	0	1	68	0.00	29.921 
22:15	78.5	78.5	80.3	62	64.4	0	1	68	0.00	29.923 
22:20	78.3	78.3	80.1	62	64.2	0	1	68	0.00	29.923 
22:25	77.9	77.9	79.6	62	63.8	0	1	68	0.00	29.923 
22:30	77.7	77.7	79.4	62	63.6	0	1	68	0.00	29.930 
22:35	77.6	77.6	79.4	62	63.5	0	1	68	0.00	29.930 
22:40	77.4	77.4	79.2	62	63.3	0	0	---	0.00	29.930 
22:45	77.2	77.2	79.0	63	63.6	0	0	---	0.00	29.937 
22:50	76.8	76.8	78.6	63	63.2	0	0	---	0.00	29.937 
22:55	76.7	76.7	78.5	64	63.6	0	0	---	0.00	29.937 
23:00	76.5	76.5	78.3	65	63.8	0	0	---	0.00	29.940 
23:05	76.3	76.3	78.1	65	63.6	0	0	---	0.00	29.940 
23:10	76.0	76.0	77.9	64	62.9	0	0	---	0.00	29.940 
23:15	76.0	76.0	77.9	64	62.9	0	1	68	0.00	29.946 
23:20	75.8	75.8	77.8	62	61.8	0	1	68	0.00	29.946 
23:25	75.8	75.8	77.8	62	61.8	0	1	68	0.00	29.946 
23:30	75.6	75.6	77.7	62	61.6	0	1	68	0.00	29.947 
23:35	75.4	75.4	77.5	62	61.5	0	0	---	0.00	29.947 
23:40	75.3	75.3	77.5	62	61.4	0	0	---	0.00	29.947 
23:45	75.1	75.1	77.3	62	61.2	0	0	---	0.00	29.942 
23:50	74.7	74.7	74.7	63	61.2	0	0	---	0.00	29.942 
23:55	74.6	74.6	74.6	63	61.2	0	0	---	0.00	29.942 

CoCoRaHS
IN-AL-39
A2 Web Hosting
Creative Commons License
GoDaddy
search engine by freefind advanced

loaded 2018-11-19 10:15:29 • last modified 2010-11-18 10:43:29
Privacy PolicyDisclaimer
• wx.awcolley.com is powered by PmWiki v.2002016 •
• all content (unless otherwise noted) © 2018 A W Colley